createdAt,value
2019-05-17T00:00:04.584Z,997.02
2019-05-17T00:01:07.088Z,997.01
2019-05-17T00:02:06.814Z,997.01
2019-05-17T00:03:06.804Z,996.99
2019-05-17T00:04:04.552Z,997.01
2019-05-17T00:05:06.747Z,996.99
2019-05-17T00:06:06.786Z,996.97
2019-05-17T00:07:06.499Z,996.97
2019-05-17T00:08:04.535Z,996.97
2019-05-17T00:09:06.882Z,996.91
2019-05-17T00:10:06.572Z,996.95
2019-05-17T00:11:06.606Z,996.91
2019-05-17T00:12:04.513Z,996.93
2019-05-17T00:13:07.010Z,996.89
2019-05-17T00:14:06.351Z,996.90
2019-05-17T00:15:06.918Z,996.87
2019-05-17T00:16:07.011Z,996.85
2019-05-17T00:17:06.476Z,996.85
2019-05-17T00:18:06.715Z,996.85
2019-05-17T00:19:04.477Z,996.81
2019-05-17T00:20:06.310Z,996.77
2019-05-17T00:21:04.468Z,996.81
2019-05-17T00:22:04.467Z,996.81
2019-05-17T00:23:06.767Z,996.80
2019-05-17T00:24:06.492Z,996.78
2019-05-17T00:25:04.449Z,996.79
2019-05-17T00:26:06.952Z,996.79
2019-05-17T00:27:06.569Z,996.78
2019-05-17T00:28:04.434Z,996.76
2019-05-17T00:29:06.650Z,996.75
2019-05-17T00:30:06.480Z,996.73
2019-05-17T00:31:06.483Z,996.74
2019-05-17T00:32:06.424Z,996.72
2019-05-17T00:33:04.411Z,996.73
2019-05-17T00:34:04.399Z,996.70
2019-05-17T00:35:04.396Z,996.70
2019-05-17T00:36:06.556Z,996.68
2019-05-17T00:37:06.819Z,996.65
2019-05-17T00:38:06.476Z,996.63
2019-05-17T00:39:04.375Z,996.61
2019-05-17T00:40:04.375Z,996.63
2019-05-17T00:41:06.642Z,996.60
2019-05-17T00:42:06.751Z,996.57
2019-05-17T00:43:06.423Z,996.56
2019-05-17T00:44:06.195Z,996.56
2019-05-17T00:45:06.586Z,996.52
2019-05-17T00:46:06.501Z,996.49
2019-05-17T00:47:06.347Z,996.46
2019-05-17T00:48:06.307Z,996.50
2019-05-17T00:49:06.342Z,996.47
2019-05-17T00:50:04.334Z,996.48
2019-05-17T00:51:04.312Z,996.47
2019-05-17T00:52:04.311Z,996.51
2019-05-17T00:53:04.320Z,996.51
2019-05-17T00:54:06.633Z,996.50
2019-05-17T00:55:06.606Z,996.47
2019-05-17T00:56:06.469Z,996.47
2019-05-17T00:57:04.284Z,996.45
2019-05-17T00:58:06.446Z,996.47
2019-05-17T00:59:04.265Z,996.43
2019-05-17T01:00:04.270Z,996.42
2019-05-17T01:01:04.265Z,996.42
2019-05-17T01:02:04.254Z,996.38
2019-05-17T01:03:06.786Z,996.39
2019-05-17T01:04:06.666Z,996.38
2019-05-17T01:05:06.189Z,996.38
2019-05-17T01:06:06.156Z,996.35
2019-05-17T01:07:04.226Z,996.35
2019-05-17T01:08:06.904Z,996.36
2019-05-17T01:09:04.295Z,996.32
2019-05-17T01:10:04.209Z,996.30
2019-05-17T01:11:04.207Z,996.28
2019-05-17T01:12:04.203Z,996.28
2019-05-17T01:13:06.540Z,996.30
2019-05-17T01:14:06.664Z,996.28
2019-05-17T01:15:04.188Z,996.27
2019-05-17T01:16:04.177Z,996.27
2019-05-17T01:17:04.174Z,996.26
2019-05-17T01:18:04.187Z,996.24
2019-05-17T01:19:04.161Z,996.22
2019-05-17T01:20:04.158Z,996.27
2019-05-17T01:21:06.255Z,996.22
2019-05-17T01:22:04.148Z,996.20
2019-05-17T01:23:04.184Z,996.22
2019-05-17T01:24:04.136Z,996.20
2019-05-17T01:25:06.240Z,996.20
2019-05-17T01:26:04.126Z,996.19
2019-05-17T01:27:06.388Z,996.15
2019-05-17T01:28:04.114Z,996.13
2019-05-17T01:29:04.110Z,996.15
2019-05-17T01:30:04.109Z,996.16
2019-05-17T01:31:06.482Z,996.13
2019-05-17T01:32:06.514Z,996.13
2019-05-17T01:33:06.411Z,996.11
2019-05-17T01:34:04.084Z,996.15
2019-05-17T01:35:04.079Z,996.13
2019-05-17T01:36:06.595Z,996.11
2019-05-17T01:37:06.334Z,996.12
2019-05-17T01:38:04.060Z,996.11
2019-05-17T01:39:14.333Z,996.09
2019-05-17T01:40:04.040Z,996.13
2019-05-17T01:41:04.046Z,996.13
2019-05-17T01:42:04.044Z,996.11
2019-05-17T01:43:04.026Z,996.13
2019-05-17T01:44:04.024Z,996.12
2019-05-17T01:45:04.015Z,996.12
2019-05-17T01:46:04.010Z,996.12
2019-05-17T01:47:04.012Z,996.12
2019-05-17T01:48:03.994Z,996.10
2019-05-17T01:49:03.999Z,996.07
2019-05-17T01:50:03.993Z,996.09
2019-05-17T01:51:03.980Z,996.08
2019-05-17T01:52:03.978Z,996.07
2019-05-17T01:53:03.989Z,996.07
2019-05-17T01:54:03.965Z,996.06
2019-05-17T01:55:03.982Z,996.04
2019-05-17T01:56:06.195Z,996.06
2019-05-17T01:57:03.947Z,996.07
2019-05-17T01:58:03.942Z,996.04
2019-05-17T01:59:03.928Z,996.03
2019-05-17T02:00:06.274Z,996.04
2019-05-17T02:01:03.921Z,996.02
2019-05-17T02:02:03.920Z,996.02
2019-05-17T02:03:10.644Z,996.04
2019-05-17T02:04:03.912Z,996.00
2019-05-17T02:05:06.314Z,996.02
2019-05-17T02:06:03.893Z,995.99
2019-05-17T02:07:03.878Z,996.01
2019-05-17T02:08:06.422Z,995.97
2019-05-17T02:09:06.209Z,995.93
2019-05-17T02:10:03.869Z,995.96
2019-05-17T02:11:03.866Z,995.92
2019-05-17T02:12:03.854Z,995.93
2019-05-17T02:13:06.355Z,995.89
2019-05-17T02:14:03.835Z,995.88
2019-05-17T02:15:03.852Z,995.86
2019-05-17T02:16:03.826Z,995.89
2019-05-17T02:17:03.818Z,995.86
2019-05-17T02:18:03.813Z,995.91
2019-05-17T02:19:03.803Z,995.89
2019-05-17T02:20:03.803Z,995.88
2019-05-17T02:21:03.807Z,995.86
2019-05-17T02:22:03.785Z,995.83
2019-05-17T02:23:03.784Z,995.88
2019-05-17T02:24:03.776Z,995.86
2019-05-17T02:25:03.770Z,995.86
2019-05-17T02:26:03.761Z,995.81
2019-05-17T02:27:03.751Z,995.82
2019-05-17T02:28:03.754Z,995.81
2019-05-17T02:29:03.749Z,995.81
2019-05-17T02:30:03.733Z,995.77
2019-05-17T02:31:03.760Z,995.76
2019-05-17T02:32:04.124Z,995.78
2019-05-17T02:33:04.307Z,995.79
2019-05-17T02:34:03.714Z,995.74
2019-05-17T02:35:03.717Z,995.75
2019-05-17T02:36:03.704Z,995.75
2019-05-17T02:37:03.698Z,995.74
2019-05-17T02:38:03.694Z,995.75
2019-05-17T02:39:03.834Z,995.70
2019-05-17T02:40:08.083Z,995.71
2019-05-17T02:41:03.791Z,995.74
2019-05-17T02:42:03.666Z,995.74
2019-05-17T02:43:03.757Z,995.74
2019-05-17T02:44:03.688Z,995.72
2019-05-17T02:45:03.675Z,995.68
2019-05-17T02:46:04.209Z,995.70
2019-05-17T02:47:03.649Z,995.72
2019-05-17T02:48:04.246Z,995.72
2019-05-17T02:49:03.640Z,995.69
2019-05-17T02:50:05.550Z,995.70
2019-05-17T02:51:03.900Z,995.68
2019-05-17T02:52:03.634Z,995.67
2019-05-17T02:53:04.702Z,995.64
2019-05-17T02:54:04.328Z,995.65
2019-05-17T02:55:04.224Z,995.62
2019-05-17T02:56:03.764Z,995.62
2019-05-17T02:57:03.576Z,995.61
2019-05-17T02:58:03.812Z,995.60
2019-05-17T02:59:03.912Z,995.61
2019-05-17T03:00:04.640Z,995.58
2019-05-17T03:01:04.098Z,995.55
2019-05-17T03:02:03.826Z,995.54
2019-05-17T03:03:03.951Z,995.58
2019-05-17T03:04:04.051Z,995.53
2019-05-17T03:05:04.269Z,995.53
2019-05-17T03:06:03.674Z,995.55
2019-05-17T03:07:04.121Z,995.51
2019-05-17T03:08:04.466Z,995.53
2019-05-17T03:09:03.712Z,995.54
2019-05-17T03:10:18.142Z,995.55
2019-05-17T03:11:03.754Z,995.52
2019-05-17T03:12:03.939Z,995.55
2019-05-17T03:13:04.202Z,995.52
2019-05-17T03:14:04.195Z,995.52
2019-05-17T03:15:04.250Z,995.53
2019-05-17T03:16:03.967Z,995.51
2019-05-17T03:17:03.673Z,995.50
2019-05-17T03:18:04.068Z,995.49
2019-05-17T03:19:04.339Z,995.47
2019-05-17T03:20:04.298Z,995.50
2019-05-17T03:21:04.179Z,995.48
2019-05-17T03:22:07.349Z,995.45
2019-05-17T03:23:04.196Z,995.46
2019-05-17T03:24:03.586Z,995.45
2019-05-17T03:25:03.778Z,995.47
2019-05-17T03:26:03.940Z,995.46
2019-05-17T03:27:03.454Z,995.43
2019-05-17T03:28:03.492Z,995.48
2019-05-17T03:29:03.644Z,995.43
2019-05-17T03:30:04.539Z,995.44
2019-05-17T03:31:07.560Z,995.43
2019-05-17T03:32:08.801Z,995.43
2019-05-17T03:33:07.466Z,995.40
2019-05-17T03:34:06.398Z,995.42
2019-05-17T03:35:06.738Z,995.40
2019-05-17T03:36:06.113Z,995.42
2019-05-17T03:37:06.117Z,995.45
2019-05-17T03:38:04.013Z,995.46
2019-05-17T03:39:03.394Z,995.46
2019-05-17T03:40:22.914Z,995.41
2019-05-17T03:41:17.039Z,995.45
2019-05-17T03:42:03.290Z,995.42
2019-05-17T03:43:03.306Z,995.45
2019-05-17T03:44:03.554Z,995.43
2019-05-17T03:45:03.369Z,995.43
2019-05-17T03:46:03.284Z,995.42
2019-05-17T03:47:03.255Z,995.42
2019-05-17T03:48:04.846Z,995.43
2019-05-17T03:49:04.098Z,995.45
2019-05-17T03:50:03.491Z,995.48
2019-05-17T03:51:03.237Z,995.50
2019-05-17T03:52:03.238Z,995.53
2019-05-17T03:53:03.220Z,995.51
2019-05-17T03:54:03.204Z,995.51
2019-05-17T03:55:04.191Z,995.53
2019-05-17T03:56:03.306Z,995.48
2019-05-17T03:57:03.225Z,995.51
2019-05-17T03:58:03.803Z,995.50
2019-05-17T03:59:03.924Z,995.47
2019-05-17T04:00:04.036Z,995.46
2019-05-17T04:01:04.214Z,995.52
2019-05-17T04:02:03.635Z,995.48
2019-05-17T04:03:03.437Z,995.51
2019-05-17T04:04:03.305Z,995.49
2019-05-17T04:05:04.389Z,995.52
2019-05-17T04:06:04.070Z,995.52
2019-05-17T04:24:12.671Z,995.53
2019-05-17T04:25:13.424Z,995.53
2019-05-17T04:27:15.133Z,995.53
2019-05-17T04:28:15.091Z,995.54
2019-05-17T04:30:19.070Z,995.56
2019-05-17T04:31:19.053Z,995.60
2019-05-17T04:33:23.626Z,995.63
2019-05-17T04:34:23.026Z,995.64
2019-05-17T04:36:27.020Z,995.65
2019-05-17T04:37:27.003Z,995.69
2019-05-17T04:39:32.668Z,995.70
2019-05-17T04:40:34.019Z,995.72
2019-05-17T04:42:34.964Z,995.73
2019-05-17T04:43:35.010Z,995.77
2019-05-17T04:45:38.932Z,995.79
2019-05-17T04:46:38.921Z,995.81
2019-05-17T04:48:43.834Z,995.76
2019-05-17T04:49:43.928Z,995.84
2019-05-17T04:51:46.903Z,995.82
2019-05-17T04:52:46.889Z,995.83
2019-05-17T04:54:53.743Z,995.81
2019-05-17T04:55:53.923Z,995.84
2019-05-17T04:57:54.950Z,995.85
2019-05-17T04:58:54.966Z,995.86
2019-05-17T05:00:59.432Z,995.87
2019-05-17T05:02:02.727Z,995.87
2019-05-17T05:02:59.433Z,995.86
2019-05-17T05:03:59.438Z,995.84
2019-05-17T05:05:02.875Z,995.88
2019-05-17T05:06:02.642Z,995.87
2019-05-17T05:06:59.456Z,995.86
2019-05-17T05:08:02.664Z,995.90
2019-05-17T05:09:02.343Z,995.92
2019-05-17T05:10:02.656Z,995.90
2019-05-17T05:10:59.480Z,995.90
2019-05-17T05:12:02.627Z,995.89
2019-05-17T05:13:02.779Z,995.89
2019-05-17T05:14:02.462Z,995.94
2019-05-17T05:14:59.506Z,995.86
2019-05-17T05:15:59.508Z,995.90
2019-05-17T05:17:02.379Z,995.91
2019-05-17T05:18:02.208Z,995.92
2019-05-17T05:18:59.525Z,995.90
2019-05-17T05:20:02.526Z,995.93
2019-05-17T05:20:59.546Z,995.87
2019-05-17T05:22:04.067Z,995.87
2019-05-17T05:23:02.361Z,995.90
2019-05-17T05:23:59.566Z,995.83
2019-05-17T05:25:01.964Z,995.77
2019-05-17T05:25:59.584Z,995.87
2019-05-17T05:26:59.591Z,995.92
2019-05-17T05:27:59.601Z,995.91
2019-05-17T05:29:02.154Z,995.87
2019-05-17T05:29:59.616Z,995.89
2019-05-17T05:31:01.988Z,995.93
2019-05-17T05:32:02.166Z,995.91
2019-05-17T05:33:01.871Z,995.90
2019-05-17T05:34:01.785Z,995.82
2019-05-17T05:34:59.664Z,995.81
2019-05-17T05:36:02.035Z,995.79
2019-05-17T05:37:01.945Z,995.85
2019-05-17T05:38:02.013Z,995.90
2019-05-17T05:38:59.704Z,995.90
2019-05-17T05:40:02.059Z,995.87
2019-05-17T05:41:01.894Z,995.89
2019-05-17T05:42:08.063Z,995.89
2019-05-17T05:43:02.140Z,995.88
2019-05-17T05:44:01.935Z,995.85
2019-05-17T05:44:59.763Z,995.87
2019-05-17T05:46:02.329Z,995.89
2019-05-17T05:47:02.002Z,995.88
2019-05-17T05:48:01.795Z,995.88
2019-05-17T05:49:01.869Z,995.88
2019-05-17T05:50:01.840Z,995.86
2019-05-17T05:51:02.928Z,995.87
2019-05-17T05:52:01.787Z,995.85
2019-05-17T05:53:01.943Z,995.78
2019-05-17T05:54:01.635Z,995.78
2019-05-17T05:55:01.497Z,995.79
2019-05-17T05:56:02.909Z,995.94
2019-05-17T05:57:02.364Z,995.98
2019-05-17T05:57:59.919Z,996.09
2019-05-17T05:58:59.935Z,996.45
2019-05-17T06:00:02.214Z,996.81
2019-05-17T06:01:02.301Z,997.00
2019-05-17T06:02:01.812Z,997.11
2019-05-17T06:02:59.997Z,997.29
2019-05-17T06:03:59.994Z,997.59
2019-05-17T06:05:02.037Z,997.59
2019-05-17T06:06:01.782Z,997.83
2019-05-17T06:07:00.029Z,997.77
2019-05-17T06:08:00.126Z,997.05
2019-05-17T06:09:02.572Z,995.97
2019-05-17T06:10:02.176Z,995.57
2019-05-17T06:11:02.145Z,995.51
2019-05-17T06:12:02.240Z,995.51
2019-05-17T06:13:03.063Z,995.48
2019-05-17T06:14:01.620Z,995.46
2019-05-17T06:15:02.565Z,995.46
2019-05-17T06:16:02.410Z,995.45
2019-05-17T06:17:02.760Z,995.44
2019-05-17T06:18:02.712Z,995.44
2019-05-17T06:19:02.177Z,995.37
2019-05-17T06:20:02.375Z,995.42
2019-05-17T06:21:02.710Z,995.34
2019-05-17T06:22:02.539Z,995.38
2019-05-17T06:23:02.406Z,995.35
2019-05-17T06:24:02.441Z,995.41
2019-05-17T06:25:03.458Z,995.35
2019-05-17T06:26:03.291Z,995.33
2019-05-17T06:27:01.899Z,995.29
2019-05-17T06:28:01.610Z,995.26
2019-05-17T06:29:02.591Z,995.26
2019-05-17T06:30:01.540Z,995.29
2019-05-17T06:31:02.630Z,995.25
2019-05-17T06:32:02.386Z,995.22
2019-05-17T06:33:02.381Z,995.22
2019-05-17T06:34:01.966Z,995.21
2019-05-17T06:35:01.872Z,995.21
2019-05-17T06:36:02.592Z,995.18
2019-05-17T06:37:02.239Z,995.26
2019-05-17T06:38:01.917Z,995.24
2019-05-17T06:39:02.185Z,995.25
2019-05-17T06:40:02.487Z,995.24
2019-05-17T06:41:01.617Z,995.23
2019-05-17T06:42:02.584Z,995.23
2019-05-17T06:43:03.985Z,995.21
2019-05-17T06:44:02.737Z,995.27
2019-05-17T06:45:02.180Z,995.20
2019-05-17T06:46:01.794Z,995.24
2019-05-17T06:47:02.441Z,995.25
2019-05-17T06:48:02.348Z,995.31
2019-05-17T06:49:02.818Z,995.26
2019-05-17T06:50:02.844Z,995.35
2019-05-17T06:51:02.439Z,995.27
2019-05-17T06:52:02.222Z,995.32
2019-05-17T06:53:02.916Z,995.28
2019-05-17T06:54:01.745Z,995.26
2019-05-17T06:55:03.488Z,995.25
2019-05-17T06:56:02.381Z,995.27
2019-05-17T06:57:03.053Z,995.19
2019-05-17T06:58:01.754Z,995.24
2019-05-17T06:59:00.162Z,995.23
2019-05-17T07:00:02.421Z,995.17
2019-05-17T07:01:00.178Z,995.21
2019-05-17T07:02:00.166Z,995.17
2019-05-17T07:03:00.685Z,995.14
2019-05-17T07:04:00.423Z,995.13
2019-05-17T07:05:01.529Z,995.09
2019-05-17T07:06:00.157Z,995.12
2019-05-17T07:07:00.197Z,995.10
2019-05-17T07:08:00.412Z,995.08
2019-05-17T07:09:00.981Z,995.05
2019-05-17T07:10:00.691Z,995.02
2019-05-17T07:11:00.149Z,995.10
2019-05-17T07:12:00.150Z,994.99
2019-05-17T07:13:01.873Z,994.99
2019-05-17T07:14:00.161Z,995.01
2019-05-17T07:15:01.755Z,994.97
2019-05-17T07:16:00.139Z,994.91
2019-05-17T07:17:00.139Z,994.98
2019-05-17T07:18:00.140Z,994.95
2019-05-17T07:19:00.138Z,994.92
2019-05-17T07:20:00.137Z,994.89
2019-05-17T07:21:03.352Z,994.89
2019-05-17T07:22:00.128Z,994.89
2019-05-17T07:23:00.572Z,994.88
2019-05-17T07:24:00.172Z,994.86
2019-05-17T07:25:00.133Z,994.83
2019-05-17T07:26:00.137Z,994.78
2019-05-17T07:27:00.120Z,994.76
2019-05-17T07:28:00.585Z,994.79
2019-05-17T07:29:00.119Z,994.76
2019-05-17T07:30:00.107Z,994.77
2019-05-17T07:31:00.111Z,994.71
2019-05-17T07:32:00.383Z,994.79
2019-05-17T07:33:00.627Z,994.78
2019-05-17T07:34:00.104Z,994.73
2019-05-17T07:35:00.244Z,994.73
2019-05-17T07:36:00.108Z,994.69
2019-05-17T07:37:00.107Z,994.73
2019-05-17T07:38:00.097Z,994.66
2019-05-17T07:39:00.758Z,994.66
2019-05-17T07:40:04.735Z,994.67
2019-05-17T07:41:00.090Z,994.67
2019-05-17T07:42:00.107Z,994.64
2019-05-17T07:43:10.130Z,994.60
2019-05-17T07:44:00.508Z,994.62
2019-05-17T07:45:00.654Z,994.61
2019-05-17T07:46:00.572Z,994.59
2019-05-17T07:47:00.218Z,994.55
2019-05-17T07:48:00.217Z,994.49
2019-05-17T07:49:00.530Z,994.52
2019-05-17T07:50:01.014Z,994.51
2019-05-17T07:51:00.081Z,994.47
2019-05-17T07:52:00.726Z,994.43
2019-05-17T07:53:00.620Z,994.45
2019-05-17T07:54:00.066Z,994.42
2019-05-17T07:55:02.458Z,994.34
2019-05-17T07:56:00.056Z,994.40
2019-05-17T07:57:00.326Z,994.41
2019-05-17T07:58:00.306Z,994.39
2019-05-17T07:59:00.194Z,994.40
2019-05-17T08:00:00.170Z,994.40
2019-05-17T08:01:02.084Z,994.33
2019-05-17T08:02:00.048Z,994.40
2019-05-17T08:03:00.119Z,994.39
2019-05-17T08:04:00.684Z,994.40
2019-05-17T08:05:00.673Z,994.34
2019-05-17T08:06:00.214Z,994.29
2019-05-17T08:07:00.038Z,994.29
2019-05-17T08:08:00.193Z,994.30
2019-05-17T08:09:03.897Z,994.28
2019-05-17T08:10:00.345Z,994.19
2019-05-17T08:11:00.513Z,994.25
2019-05-17T08:12:00.024Z,994.31
2019-05-17T08:13:00.026Z,994.24
2019-05-17T08:14:00.027Z,994.26
2019-05-17T08:15:00.126Z,994.27
2019-05-17T08:16:00.064Z,994.20
2019-05-17T08:17:00.021Z,994.24
2019-05-17T08:18:01.890Z,994.23
2019-05-17T08:19:00.428Z,994.18
2019-05-17T08:20:00.605Z,994.21
2019-05-17T08:21:00.008Z,994.12
2019-05-17T08:22:00.000Z,994.13
2019-05-17T08:23:00.017Z,994.18
2019-05-17T08:24:00.289Z,994.17
2019-05-17T08:25:00.286Z,994.07
2019-05-17T08:26:00.675Z,994.08
2019-05-17T08:27:00.069Z,994.07
2019-05-17T08:27:59.998Z,994.09
2019-05-17T08:29:00.756Z,994.11
2019-05-17T08:30:00.041Z,994.05
2019-05-17T08:31:01.086Z,994.05
2019-05-17T08:32:00.427Z,994.06
2019-05-17T08:33:00.895Z,994.03
2019-05-17T08:34:00.170Z,993.99
2019-05-17T08:35:00.473Z,993.98
2019-05-17T08:35:59.980Z,993.97
2019-05-17T08:37:01.061Z,993.92
2019-05-17T08:38:00.596Z,993.94
2019-05-17T08:38:59.981Z,993.93
2019-05-17T08:40:00.273Z,993.89
2019-05-17T08:41:00.724Z,993.93
2019-05-17T08:42:01.362Z,993.94
2019-05-17T08:43:00.182Z,993.90
2019-05-17T08:44:00.697Z,993.90
2019-05-17T08:45:00.365Z,993.90
2019-05-17T08:46:01.906Z,993.92
2019-05-17T08:46:59.968Z,993.90
2019-05-17T08:48:00.438Z,993.88
2019-05-17T08:49:00.368Z,993.92
2019-05-17T08:50:00.579Z,993.88
2019-05-17T08:51:00.263Z,993.90
2019-05-17T08:51:59.961Z,993.85
2019-05-17T08:53:00.062Z,993.77
2019-05-17T08:54:00.221Z,993.84
2019-05-17T08:55:00.531Z,993.81
2019-05-17T08:56:00.943Z,993.84
2019-05-17T08:57:00.647Z,993.89
2019-05-17T08:58:01.018Z,993.84
2019-05-17T08:59:00.797Z,993.84
2019-05-17T09:00:00.947Z,993.76
2019-05-17T09:01:00.456Z,993.77
2019-05-17T09:02:00.167Z,993.79
2019-05-17T09:03:00.127Z,993.82
2019-05-17T09:04:00.051Z,993.76
2019-05-17T09:05:00.445Z,993.79
2019-05-17T09:06:02.146Z,993.76
2019-05-17T09:07:03.010Z,993.70
2019-05-17T09:08:00.142Z,993.74
2019-05-17T09:09:00.767Z,993.65
2019-05-17T09:10:01.699Z,993.68
2019-05-17T09:11:00.560Z,993.67
2019-05-17T09:11:59.930Z,993.67
2019-05-17T09:12:59.934Z,993.70
2019-05-17T09:14:02.019Z,993.67
2019-05-17T09:15:00.454Z,993.61
2019-05-17T09:16:00.477Z,993.65
2019-05-17T09:17:00.453Z,993.60
2019-05-17T09:18:00.377Z,993.53
2019-05-17T09:19:00.474Z,993.60
2019-05-17T09:20:00.752Z,993.62
2019-05-17T09:21:00.522Z,993.61
2019-05-17T09:21:59.959Z,993.59
2019-05-17T09:23:00.157Z,993.61
2019-05-17T09:23:59.922Z,993.56
2019-05-17T09:24:59.913Z,993.58
2019-05-17T09:25:59.920Z,993.62
2019-05-17T09:26:59.992Z,993.56
2019-05-17T09:28:00.692Z,993.63
2019-05-17T09:29:01.199Z,993.65
2019-05-17T09:30:00.198Z,993.56
2019-05-17T09:31:00.211Z,993.61
2019-05-17T09:32:00.096Z,993.59
2019-05-17T09:33:00.384Z,993.52
2019-05-17T09:34:00.408Z,993.59
2019-05-17T09:35:00.366Z,993.60
2019-05-17T09:36:00.697Z,993.53
2019-05-17T09:37:00.317Z,993.55
2019-05-17T09:38:00.591Z,993.57
2019-05-17T09:39:00.229Z,993.47
2019-05-17T09:40:00.017Z,993.50
2019-05-17T09:41:00.197Z,993.49
2019-05-17T09:41:59.893Z,993.52
2019-05-17T09:43:00.509Z,993.42
2019-05-17T09:44:11.840Z,993.40
2019-05-17T09:45:00.317Z,993.42
2019-05-17T09:46:01.668Z,993.39
2019-05-17T09:46:59.892Z,993.37
2019-05-17T09:48:00.731Z,993.38
2019-05-17T09:49:01.076Z,993.37
2019-05-17T09:50:00.521Z,993.32
2019-05-17T09:51:00.224Z,993.33
2019-05-17T09:52:00.233Z,993.33
2019-05-17T09:53:00.083Z,993.36
2019-05-17T09:54:00.191Z,993.26
2019-05-17T09:55:00.683Z,993.34
2019-05-17T09:56:00.479Z,993.30
2019-05-17T09:57:00.460Z,993.28
2019-05-17T09:58:00.348Z,993.21
2019-05-17T09:59:00.470Z,993.28
2019-05-17T10:00:00.307Z,993.22
2019-05-17T10:01:01.324Z,993.22
2019-05-17T10:02:00.178Z,993.22
2019-05-17T10:03:00.150Z,993.22
2019-05-17T10:04:00.063Z,993.23
2019-05-17T10:05:00.023Z,993.19
2019-05-17T10:06:00.114Z,993.25
2019-05-17T10:06:59.879Z,993.20
2019-05-17T10:08:00.121Z,993.26
2019-05-17T10:09:00.231Z,993.18
2019-05-17T10:09:59.954Z,993.23
2019-05-17T10:11:08.347Z,993.26
2019-05-17T10:12:00.078Z,993.17
2019-05-17T10:13:00.313Z,993.13
2019-05-17T10:14:01.325Z,993.20
2019-05-17T10:15:00.503Z,993.15
2019-05-17T10:16:00.451Z,993.16
2019-05-17T10:17:00.403Z,993.16
2019-05-17T10:18:00.596Z,993.15
2019-05-17T10:19:00.153Z,993.17
2019-05-17T10:20:00.081Z,993.16
2019-05-17T10:21:00.033Z,993.15
2019-05-17T10:21:59.878Z,993.09
2019-05-17T10:22:59.863Z,993.09
2019-05-17T10:24:00.238Z,993.13
2019-05-17T10:25:00.345Z,993.11
2019-05-17T10:25:59.875Z,993.12
2019-05-17T10:26:59.857Z,993.09
2019-05-17T10:28:00.610Z,993.08
2019-05-17T10:28:59.863Z,993.12
2019-05-17T10:29:59.905Z,993.05
2019-05-17T10:31:02.418Z,993.01
2019-05-17T10:31:59.979Z,993.03
2019-05-17T10:33:00.165Z,993.10
2019-05-17T10:34:01.104Z,993.01
2019-05-17T10:35:00.290Z,993.05
2019-05-17T10:36:00.473Z,993.00
2019-05-17T10:36:59.853Z,992.95
2019-05-17T10:38:00.116Z,992.99
2019-05-17T10:38:59.881Z,993.05
2019-05-17T10:39:59.871Z,992.96
2019-05-17T10:40:59.856Z,992.96
2019-05-17T10:41:59.862Z,992.95
2019-05-17T10:43:00.751Z,992.94
2019-05-17T10:43:59.851Z,992.91
2019-05-17T10:45:00.079Z,992.89
2019-05-17T10:45:59.989Z,992.91
2019-05-17T10:46:59.855Z,992.80
2019-05-17T10:48:00.761Z,992.87
2019-05-17T10:48:59.856Z,992.90
2019-05-17T10:49:59.851Z,992.91
2019-05-17T10:51:00.369Z,992.95
2019-05-17T10:52:00.038Z,992.88
2019-05-17T10:53:00.557Z,992.86
2019-05-17T10:54:00.065Z,992.82
2019-05-17T10:55:00.080Z,992.80
2019-05-17T10:56:00.751Z,992.82
2019-05-17T10:56:59.915Z,992.86
2019-05-17T10:58:00.477Z,992.87
2019-05-17T10:59:00.211Z,992.83
2019-05-17T10:59:59.868Z,992.79
2019-05-17T11:01:00.812Z,992.80
2019-05-17T11:01:59.855Z,992.79
2019-05-17T11:03:00.470Z,992.76
2019-05-17T11:03:59.891Z,992.74
2019-05-17T11:05:00.770Z,992.76
2019-05-17T11:06:00.018Z,992.78
2019-05-17T11:06:59.850Z,992.77
2019-05-17T11:08:00.031Z,992.78
2019-05-17T11:08:59.849Z,992.73
2019-05-17T11:10:00.509Z,992.74
2019-05-17T11:10:59.848Z,992.73
2019-05-17T11:11:59.865Z,992.73
2019-05-17T11:12:59.860Z,992.74
2019-05-17T11:13:59.853Z,992.74
2019-05-17T11:15:10.514Z,992.66
2019-05-17T11:15:59.855Z,992.68
2019-05-17T11:18:39.267Z,992.72
2019-05-17T11:19:39.195Z,992.76
2019-05-17T11:20:39.232Z,992.70
2019-05-17T11:21:39.237Z,992.71
2019-05-17T11:22:39.183Z,992.65
2019-05-17T11:23:39.183Z,992.68
2019-05-17T11:24:39.211Z,992.70
2019-05-17T11:25:45.059Z,992.64
2019-05-17T11:26:39.229Z,992.69
2019-05-17T11:27:39.203Z,992.69
2019-05-17T11:28:39.227Z,992.68
2019-05-17T11:29:39.200Z,992.71
2019-05-17T11:30:39.213Z,992.65
2019-05-17T11:31:39.218Z,992.75
2019-05-17T11:32:39.195Z,992.76
2019-05-17T11:33:39.257Z,992.78
2019-05-17T11:34:48.929Z,992.78
2019-05-17T11:36:43.718Z,992.67
2019-05-17T11:37:43.701Z,992.72
2019-05-17T11:38:43.714Z,992.73
2019-05-17T11:39:43.679Z,992.73
2019-05-17T11:40:43.691Z,992.71
2019-05-17T11:41:43.695Z,992.67
2019-05-17T11:42:43.680Z,992.74
2019-05-17T11:43:43.714Z,992.74
2019-05-17T11:44:43.722Z,992.66
2019-05-17T11:45:43.731Z,992.66
2019-05-17T11:46:43.668Z,992.72
2019-05-17T11:47:43.680Z,992.70
2019-05-17T11:48:43.673Z,992.71
2019-05-17T11:49:43.674Z,992.71
2019-05-17T11:50:43.725Z,992.70
2019-05-17T11:51:43.694Z,992.67
2019-05-17T11:52:43.685Z,992.66
2019-05-17T11:53:43.706Z,992.64
2019-05-17T11:54:43.690Z,992.59
2019-05-17T11:55:43.675Z,992.57
2019-05-17T11:56:52.491Z,992.62
2019-05-17T11:58:49.259Z,992.61
2019-05-17T11:59:49.247Z,992.57
2019-05-17T12:00:57.884Z,992.51
2019-05-17T12:04:34.181Z,992.55
2019-05-17T12:05:34.127Z,992.57
2019-05-17T12:06:34.125Z,992.51
2019-05-17T12:07:34.110Z,992.52
2019-05-17T12:08:34.113Z,992.55
2019-05-17T12:09:37.430Z,992.55
2019-05-17T12:10:34.141Z,992.53
2019-05-17T12:11:34.095Z,992.52
2019-05-17T12:12:34.164Z,992.51
2019-05-17T12:13:34.115Z,992.57
2019-05-17T12:14:34.103Z,992.51
2019-05-17T12:15:44.240Z,992.49
2019-05-17T12:16:34.150Z,992.52
2019-05-17T12:17:34.145Z,992.48
2019-05-17T12:18:34.152Z,992.44
2019-05-17T12:19:37.118Z,992.52
2019-05-17T12:20:34.180Z,992.47
2019-05-17T12:21:34.097Z,992.49
2019-05-17T12:22:34.165Z,992.55
2019-05-17T12:23:34.123Z,992.55
2019-05-17T12:24:34.126Z,992.54
2019-05-17T12:25:34.118Z,992.54
2019-05-17T12:26:34.182Z,992.57
2019-05-17T12:27:34.136Z,992.53
2019-05-17T12:28:34.111Z,992.53
2019-05-17T12:29:34.134Z,992.52
2019-05-17T12:30:34.134Z,992.48
2019-05-17T12:31:34.110Z,992.47
2019-05-17T12:32:34.147Z,992.43
2019-05-17T12:33:34.135Z,992.44
2019-05-17T12:34:34.154Z,992.39
2019-05-17T12:35:34.189Z,992.45
2019-05-17T12:36:34.212Z,992.42
2019-05-17T12:37:34.129Z,992.43
2019-05-17T12:38:34.116Z,992.45
2019-05-17T12:39:34.179Z,992.43
2019-05-17T12:40:34.126Z,992.44
2019-05-17T12:41:34.142Z,992.40
2019-05-17T12:42:34.125Z,992.41
2019-05-17T12:43:34.216Z,992.44
2019-05-17T12:44:37.122Z,992.41
2019-05-17T12:45:34.145Z,992.44
2019-05-17T12:46:34.169Z,992.40
2019-05-17T12:47:34.185Z,992.41
2019-05-17T12:48:34.165Z,992.37
2019-05-17T12:49:34.164Z,992.39
2019-05-17T12:50:34.171Z,992.43
2019-05-17T12:51:34.193Z,992.39
2019-05-17T12:52:34.171Z,992.39
2019-05-17T12:53:34.178Z,992.39
2019-05-17T12:54:34.164Z,992.38
2019-05-17T12:55:34.165Z,992.41
2019-05-17T12:56:34.164Z,992.43
2019-05-17T12:57:34.155Z,992.41
2019-05-17T12:58:34.145Z,992.44
2019-05-17T12:59:34.154Z,992.41
2019-05-17T13:00:34.161Z,992.40
2019-05-17T13:01:34.156Z,992.33
2019-05-17T13:02:34.151Z,992.36
2019-05-17T13:03:34.174Z,992.33
2019-05-17T13:04:34.180Z,992.31